Time;durP1;ratioP1;P1;durP2;ratioP2;P2;SDS_P1;SDS_P2;PMS_P1;PMS_P2;Temp;Humidity;BMP_temperature;BMP_pressure;BME280_temperature;BME280_humidity;BME280_pressure;Samples;Min_cycle;Max_cycle;Signal;HPM_P1;HPM_P2
2021/09/20 00:02:24;;;;;;;3.58;1.23;;;16.30;12.70;;;;;;5097597;28;20428;-81
2021/09/20 00:04:50;;;;;;;4.63;1.02;;;16.30;7.80;;;;;;5097338;28;20043;-81
2021/09/20 00:07:16;;;;;;;2.05;1.20;;;16.30;11.30;;;;;;5097230;28;20052;-80
2021/09/20 00:09:41;;;;;;;3.20;1.10;;;16.30;11.80;;;;;;5097464;28;20071;-80
2021/09/20 00:12:07;;;;;;;3.58;1.02;;;16.30;13.50;;;;;;5097207;28;20046;-80
2021/09/20 00:14:33;;;;;;;4.35;1.15;;;16.30;18.30;;;;;;5097520;28;20124;-81
2021/09/20 00:16:59;;;;;;;3.35;1.20;;;16.10;18.70;;;;;;5097017;28;20036;-81
2021/09/20 00:19:25;;;;;;;3.03;0.98;;;16.10;24.10;;;;;;5097383;28;20552;-80
2021/09/20 00:21:50;;;;;;;3.33;1.10;;;16.10;22.50;;;;;;5097031;28;20028;-81
2021/09/20 00:24:16;;;;;;;1.60;0.98;;;16.20;14.80;;;;;;5096371;28;20043;-81
2021/09/20 00:26:42;;;;;;;1.90;0.80;;;16.20;21.60;;;;;;5096927;28;20028;-81
2021/09/20 00:29:08;;;;;;;1.83;0.80;;;16.20;22.40;;;;;;5097789;28;20090;-80
2021/09/20 00:31:34;;;;;;;2.83;0.90;;;16.30;13.70;;;;;;5096993;28;20129;-81
2021/09/20 00:34:00;;;;;;;2.28;0.93;;;16.20;13.10;;;;;;5097100;28;20040;-81
2021/09/20 00:36:26;;;;;;;1.05;0.90;;;16.20;9.10;;;;;;5096999;28;20047;-81
2021/09/20 00:38:51;;;;;;;2.72;0.88;;;16.20;4.40;;;;;;5097288;28;20048;-81
2021/09/20 00:41:17;;;;;;;3.70;1.10;;;16.20;9.00;;;;;;5096953;28;20483;-81
2021/09/20 00:43:43;;;;;;;1.15;0.90;;;16.30;8.40;;;;;;5096853;28;20040;-81
2021/09/20 00:46:09;;;;;;;6.05;1.08;;;16.30;8.20;;;;;;5096380;28;20546;-81
2021/09/20 00:48:35;;;;;;;2.70;0.80;;;16.30;3.20;;;;;;5095168;28;20071;-81
2021/09/20 00:51:01;;;;;;;2.58;1.10;;;16.30;3.60;;;;;;5096428;28;20042;-81
2021/09/20 00:53:27;;;;;;;2.25;1.10;;;16.30;11.90;;;;;;5096866;28;20043;-81
2021/09/20 00:55:54;;;;;;;2.67;0.90;;;16.20;13.20;;;;;;5096686;28;20040;-81
2021/09/20 00:58:20;;;;;;;2.83;1.00;;;16.20;16.20;;;;;;5096668;28;20130;-80
2021/09/20 01:00:45;;;;;;;1.05;0.70;;;16.20;16.30;;;;;;5096133;28;20109;-80
2021/09/20 01:03:11;;;;;;;2.25;1.02;;;16.20;12.70;;;;;;5096257;28;20028;-80
2021/09/20 01:05:37;;;;;;;4.53;1.00;;;16.20;15.20;;;;;;5096442;28;20060;-80
2021/09/20 01:08:03;;;;;;;1.27;0.80;;;16.10;23.70;;;;;;5096191;28;20039;-81
2021/09/20 01:10:29;;;;;;;0.77;0.70;;;16.10;27.00;;;;;;5094884;28;20489;-81
2021/09/20 01:12:55;;;;;;;1.77;0.68;;;16.10;24.20;;;;;;5096051;28;20059;-81
2021/09/20 01:15:21;;;;;;;2.45;0.80;;;16.10;25.70;;;;;;5094554;28;20058;-81
2021/09/20 01:17:47;;;;;;;1.17;0.90;;;16.10;18.00;;;;;;5095724;28;20093;-81
2021/09/20 01:20:13;;;;;;;5.03;0.82;;;16.10;19.90;;;;;;5095875;28;20551;-81
2021/09/20 01:22:39;;;;;;;1.33;0.90;;;16.10;17.60;;;;;;5094578;28;20070;-80
2021/09/20 01:25:07;;;;;;;1.10;0.80;;;16.10;18.00;;;;;;5094799;28;20032;-81
2021/09/20 01:27:33;;;;;;;1.42;0.93;;;16.00;16.90;;;;;;5095926;28;20036;-80
2021/09/20 01:29:59;;;;;;;1.92;0.82;;;16.10;15.10;;;;;;5094218;28;20177;-80
2021/09/20 01:32:25;;;;;;;1.85;0.70;;;16.00;21.00;;;;;;5095483;28;20051;-81
2021/09/20 01:34:51;;;;;;;1.42;0.45;;;16.10;12.90;;;;;;5094327;28;20119;-81
2021/09/20 01:37:17;;;;;;;0.60;0.50;;;16.10;18.10;;;;;;5095666;28;20036;-81
2021/09/20 01:39:42;;;;;;;0.75;0.60;;;16.20;16.90;;;;;;5095300;28;20406;-81
2021/09/20 01:42:09;;;;;;;3.08;0.65;;;16.20;14.40;;;;;;5095790;28;20043;-81
2021/09/20 01:44:36;;;;;;;2.67;0.88;;;16.20;11.90;;;;;;5095485;28;20491;-81
2021/09/20 01:47:02;;;;;;;1.65;0.60;;;16.20;16.40;;;;;;5093737;28;20031;-81
2021/09/20 01:49:28;;;;;;;0.70;0.57;;;16.20;11.00;;;;;;5095547;28;20040;-81
2021/09/20 01:51:55;;;;;;;1.38;0.63;;;16.10;1.30;;;;;;5095313;28;20040;-81
2021/09/20 01:54:21;;;;;;;0.73;0.68;;;16.10;1.00;;;;;;5095268;28;20036;-81
2021/09/20 01:56:47;;;;;;;2.40;0.70;;;16.00;1.00;;;;;;5095596;28;20085;-81
2021/09/20 01:59:13;;;;;;;3.10;0.80;;;16.00;1.00;;;;;;5095027;28;20043;-81
2021/09/20 02:01:38;;;;;;;0.77;0.70;;;15.90;1.00;;;;;;5093852;28;20035;-81
2021/09/20 02:04:05;;;;;;;1.55;0.85;;;15.80;1.00;;;;;;5094829;28;20490;-81
2021/09/20 02:06:31;;;;;;;2.17;0.90;;;15.80;3.50;;;;;;5094762;28;20541;-81
2021/09/20 02:08:56;;;;;;;3.22;0.93;;;15.80;1.00;;;;;;5094929;28;20555;-80
2021/09/20 02:11:24;;;;;;;3.25;0.90;;;15.70;1.30;;;;;;5094992;28;20040;-81
2021/09/20 02:13:51;;;;;;;1.23;0.98;;;15.80;4.70;;;;;;5095261;28;20043;-81
2021/09/20 02:16:17;;;;;;;2.45;0.80;;;15.70;1.70;;;;;;5094893;28;20461;-81
2021/09/20 02:18:43;;;;;;;2.35;1.10;;;15.70;5.60;;;;;;5094915;28;20044;-81
2021/09/20 02:21:10;;;;;;;3.95;1.00;;;15.70;8.10;;;;;;5094537;28;20043;-80
2021/09/20 02:23:37;;;;;;;5.30;1.20;;;15.70;10.10;;;;;;5093780;28;20413;-80
2021/09/20 02:26:04;;;;;;;1.80;1.08;;;15.60;10.40;;;;;;5094479;28;20047;-81
2021/09/20 02:28:31;;;;;;;3.42;1.20;;;15.60;9.00;;;;;;5095037;28;20039;-81
2021/09/20 02:30:57;;;;;;;2.08;1.05;;;15.70;11.90;;;;;;5094448;28;20070;-81
2021/09/20 02:33:23;;;;;;;2.85;0.93;;;15.60;11.60;;;;;;5093384;28;20042;-81
2021/09/20 02:35:49;;;;;;;2.85;1.15;;;15.60;15.10;;;;;;5093374;28;20117;-81
2021/09/20 02:38:15;;;;;;;3.22;1.10;;;15.50;19.10;;;;;;5094416;28;20040;-81
2021/09/20 02:40:41;;;;;;;2.17;1.02;;;15.60;18.80;;;;;;5094599;28;20391;-81
2021/09/20 02:43:07;;;;;;;2.30;0.77;;;15.50;24.40;;;;;;5093299;28;20062;-81
2021/09/20 02:45:33;;;;;;;2.05;0.80;;;15.50;29.00;;;;;;5093506;28;20506;-81
2021/09/20 02:47:59;;;;;;;2.38;0.85;;;15.40;24.80;;;;;;5095565;28;20036;-81
2021/09/20 02:50:25;;;;;;;1.33;0.57;;;15.40;26.90;;;;;;5098487;28;20070;-81
2021/09/20 02:52:51;;;;;;;1.15;0.60;;;15.40;25.60;;;;;;5097395;28;20028;-81
2021/09/20 02:55:17;;;;;;;1.52;0.60;;;15.30;26.30;;;;;;5098417;28;20038;-81
2021/09/20 02:57:42;;;;;;;2.08;0.90;;;15.40;24.40;;;;;;5098775;28;20028;-81
2021/09/20 03:00:11;;;;;;;0.98;0.68;;;15.40;29.20;;;;;;5098720;28;20390;-81
2021/09/20 03:02:37;;;;;;;1.95;0.82;;;15.40;20.70;;;;;;5098731;28;20063;-81
2021/09/20 03:05:04;;;;;;;2.60;0.63;;;15.50;17.80;;;;;;5098385;28;20071;-81
2021/09/20 03:07:30;;;;;;;1.42;0.80;;;15.40;25.60;;;;;;5098719;28;20140;-81
2021/09/20 03:09:57;;;;;;;2.03;0.75;;;15.40;22.20;;;;;;5098695;28;20490;-81
2021/09/20 03:12:22;;;;;;;3.05;0.75;;;15.50;6.60;;;;;;5098682;28;20123;-81
2021/09/20 03:14:48;;;;;;;2.65;0.90;;;15.50;12.50;;;;;;5098635;28;20177;-81
2021/09/20 03:17:14;;;;;;;1.20;0.82;;;15.50;14.00;;;;;;5098471;28;20040;-81
2021/09/20 03:19:40;;;;;;;1.92;0.90;;;15.50;8.80;;;;;;5098817;28;20067;-81
2021/09/20 03:22:07;;;;;;;1.15;0.75;;;15.60;11.20;;;;;;5098534;28;20487;-81
2021/09/20 03:24:33;;;;;;;3.13;1.20;;;15.60;16.20;;;;;;5098129;28;20399;-81
2021/09/20 03:26:58;;;;;;;3.45;0.80;;;15.70;3.60;;;;;;5098130;28;20040;-81
2021/09/20 03:29:24;;;;;;;3.10;0.80;;;15.70;1.60;;;;;;5097816;28;20044;-81
2021/09/20 03:31:50;;;;;;;2.85;0.80;;;15.80;3.50;;;;;;5097860;28;20487;-81
2021/09/20 03:34:16;;;;;;;2.08;0.73;;;15.80;1.00;;;;;;5098556;28;20495;-81
2021/09/20 03:36:42;;;;;;;1.83;0.80;;;15.70;5.70;;;;;;5097942;28;20040;-81
2021/09/20 03:39:08;;;;;;;2.00;0.80;;;15.70;16.70;;;;;;5098276;28;20596;-81
2021/09/20 03:41:34;;;;;;;3.88;0.90;;;15.70;12.40;;;;;;5098115;28;20378;-81
2021/09/20 03:44:00;;;;;;;1.10;0.73;;;15.60;17.70;;;;;;5098111;28;20032;-81
2021/09/20 03:46:26;;;;;;;2.08;0.98;;;15.60;25.10;;;;;;5098139;28;20040;-81
2021/09/20 03:48:53;;;;;;;2.10;0.82;;;15.70;1.60;;;;;;5098120;28;20510;-81
2021/09/20 03:51:18;;;;;;;1.67;1.00;;;15.80;1.00;;;;;;5097634;28;20051;-81
2021/09/20 03:53:44;;;;;;;3.30;0.95;;;15.80;5.70;;;;;;5098104;28;20032;-81
2021/09/20 03:56:10;;;;;;;2.05;1.00;;;15.80;3.30;;;;;;5097511;28;20478;-81
2021/09/20 03:58:37;;;;;;;3.15;0.80;;;15.80;6.60;;;;;;5096642;28;20528;-80
2021/09/20 04:01:04;;;;;;;2.80;1.10;;;15.70;13.50;;;;;;5096674;28;20471;-81
2021/09/20 04:03:29;;;;;;;3.17;0.93;;;15.70;16.40;;;;;;5096281;28;20063;-82
2021/09/20 04:05:55;;;;;;;1.90;0.93;;;15.70;11.30;;;;;;5095373;28;20137;-82
2021/09/20 04:08:27;;;;;;;2.15;0.95;;;15.70;13.90;;;;;;5096407;28;20044;-82
2021/09/20 04:10:53;;;;;;;2.55;1.05;;;15.70;10.20;;;;;;5096913;28;20048;-82
2021/09/20 04:13:19;;;;;;;5.75;1.13;;;15.70;7.20;;;;;;5096793;28;20089;-83
2021/09/20 04:15:45;;;;;;;2.40;1.08;;;15.70;10.40;;;;;;5095662;28;20040;-82
2021/09/20 04:18:11;;;;;;;1.45;1.10;;;15.70;8.40;;;;;;5095597;28;20040;-82
2021/09/20 04:20:37;;;;;;;3.33;1.08;;;15.70;5.60;;;;;;5100858;28;20519;-82
2021/09/20 04:23:03;;;;;;;4.28;1.10;;;15.80;10.20;;;;;;5117398;28;20039;-82
2021/09/20 04:25:29;;;;;;;5.18;1.50;;;15.70;7.10;;;;;;5117099;28;20066;-82
2021/09/20 04:27:55;;;;;;;2.95;1.40;;;15.70;9.60;;;;;;5117139;27;20039;-82
2021/09/20 04:30:20;;;;;;;4.00;1.33;;;15.70;4.80;;;;;;5117155;28;20043;-80
2021/09/20 04:32:46;;;;;;;4.25;1.05;;;15.70;4.20;;;;;;5116894;28;20032;-83
2021/09/20 04:35:13;;;;;;;1.98;1.10;;;15.70;5.40;;;;;;5117324;28;20044;-82
2021/09/20 04:37:39;;;;;;;3.10;1.20;;;15.70;10.40;;;;;;5117043;27;20487;-76
2021/09/20 04:40:06;;;;;;;4.30;1.45;;;15.70;3.90;;;;;;5116730;28;20058;-78
2021/09/20 04:42:32;;;;;;;3.50;1.40;;;15.70;8.50;;;;;;5116586;28;20057;-78
2021/09/20 04:45:00;;;;;;;1.30;1.20;;;15.80;5.50;;;;;;5116508;28;20478;-78
2021/09/20 04:47:26;;;;;;;1.88;1.00;;;15.80;9.20;;;;;;5116797;28;20039;-77
2021/09/20 04:49:52;;;;;;;2.70;1.30;;;15.80;8.90;;;;;;5117090;28;20109;-77
2021/09/20 04:52:18;;;;;;;4.13;1.30;;;15.80;10.50;;;;;;5115486;28;20112;-78
2021/09/20 04:54:44;;;;;;;1.40;1.00;;;15.80;20.20;;;;;;5116338;28;20130;-78
2021/09/20 04:57:09;;;;;;;2.58;1.25;;;15.80;24.20;;;;;;5115942;28;20385;-78
2021/09/20 04:59:38;;;;;;;3.22;1.15;;;15.70;22.90;;;;;;5115045;28;20039;-78
2021/09/20 05:02:04;;;;;;;1.60;0.85;;;15.70;19.70;;;;;;5116164;28;20066;-78
2021/09/20 05:04:30;;;;;;;1.75;0.90;;;15.70;36.60;;;;;;5115593;28;20031;-78
2021/09/20 05:06:56;;;;;;;1.05;0.88;;;15.70;30.00;;;;;;5116499;28;20516;-78
2021/09/20 05:09:21;;;;;;;2.25;0.70;;;15.70;20.30;;;;;;5115388;28;20040;-77
2021/09/20 05:11:47;;;;;;;1.40;0.90;;;15.70;19.50;;;;;;5116092;28;20099;-77
2021/09/20 05:14:13;;;;;;;2.33;0.60;;;15.70;10.60;;;;;;5114565;28;20140;-78
2021/09/20 05:16:39;;;;;;;2.25;1.00;;;15.70;15.70;;;;;;5130447;27;20049;-78
2021/09/20 05:19:05;;;;;;;2.22;0.90;;;15.70;11.80;;;;;;5130491;27;20050;-78
2021/09/20 05:21:31;;;;;;;1.42;0.80;;;15.70;5.60;;;;;;5114391;28;20039;-78
2021/09/20 05:23:57;;;;;;;1.52;0.95;;;15.60;12.70;;;;;;5107757;28;20123;-79
2021/09/20 05:26:23;;;;;;;2.17;0.90;;;15.60;13.60;;;;;;5094412;28;20047;-78
2021/09/20 05:28:49;;;;;;;2.63;0.82;;;15.60;24.50;;;;;;5094071;28;20487;-79
2021/09/20 05:31:15;;;;;;;1.13;0.60;;;15.50;15.00;;;;;;5093829;28;20059;-79
2021/09/20 05:33:41;;;;;;;0.85;0.65;;;15.60;10.60;;;;;;5094146;28;20035;-79
2021/09/20 05:36:07;;;;;;;1.38;0.85;;;15.60;9.00;;;;;;5092562;28;20035;-78
2021/09/20 05:38:33;;;;;;;1.50;0.80;;;15.60;1.00;;;;;;5093021;28;20050;-81
2021/09/20 05:40:59;;;;;;;0.95;0.40;;;15.70;1.00;;;;;;5093863;28;20119;-80
2021/09/20 05:43:29;;;;;;;0.73;0.50;;;15.70;1.00;;;;;;5093518;28;20066;-80
2021/09/20 05:45:55;;;;;;;0.60;0.50;;;15.70;1.00;;;;;;5093781;28;20035;-81
2021/09/20 05:48:21;;;;;;;0.98;0.60;;;15.70;1.00;;;;;;5095319;28;20035;-81
2021/09/20 05:50:47;;;;;;;0.73;0.60;;;15.80;1.00;;;;;;5095174;28;20048;-79
2021/09/20 05:53:14;;;;;;;1.77;0.63;;;15.80;1.00;;;;;;5094190;28;20189;-81
2021/09/20 05:55:42;;;;;;;0.95;0.70;;;15.80;1.00;;;;;;5093882;28;20039;-81
2021/09/20 05:58:10;;;;;;;0.50;0.50;;;15.80;1.00;;;;;;5092587;28;20038;-80
2021/09/20 06:04:16;;;;;;;1.85;0.63;;;15.70;18.90;;;;;;5093332;28;20116;-81
2021/09/20 06:10:59;;;;;;;1.23;0.50;;;15.60;3.80;;;;;;5049749;28;19971;-80
2021/09/20 06:14:40;;;;;;;0.98;0.50;;;15.70;6.00;;;;;;4992308;28;20042;-80
2021/09/20 06:34:17;;;;;;;0.85;0.43;;;15.70;8.50;;;;;;4891194;29;20041;-79
2021/09/20 06:36:43;;;;;;;0.70;0.50;;;15.70;13.30;;;;;;4943203;28;20047;-85
2021/09/20 06:39:50;;;;;;;1.65;0.50;;;15.70;19.90;;;;;;5054143;28;20491;-89
2021/09/20 06:45:37;;;;;;;0.70;0.50;;;15.70;26.80;;;;;;5054288;28;20040;-76
2021/09/20 06:48:02;;;;;;;1.80;0.60;;;15.70;20.20;;;;;;5054089;28;20592;-75
2021/09/20 06:50:28;;;;;;;0.40;0.40;;;15.60;19.30;;;;;;5054887;28;20041;-74
2021/09/20 06:52:54;;;;;;;0.70;0.50;;;15.60;24.00;;;;;;5054020;28;20091;-75
2021/09/20 06:55:20;;;;;;;0.30;0.30;;;15.60;23.80;;;;;;5054306;28;20045;-73
2021/09/20 06:57:46;;;;;;;1.02;0.30;;;15.70;10.80;;;;;;5052503;28;20033;-73
2021/09/20 07:00:13;;;;;;;0.88;0.52;;;15.80;7.80;;;;;;5054083;28;20049;-75
2021/09/20 07:02:40;;;;;;;1.55;0.50;;;15.90;5.30;;;;;;5054289;28;20055;-73
2021/09/20 07:05:08;;;;;;;1.05;0.40;;;15.90;1.00;;;;;;5047411;28;20091;-74
2021/09/20 07:07:33;;;;;;;0.60;0.40;;;16.00;1.00;;;;;;5038675;28;20052;-74
2021/09/20 07:10:03;;;;;;;1.00;0.50;;;16.10;1.00;;;;;;5083738;28;20052;-75
2021/09/20 07:12:34;;;;;;;2.30;0.50;;;16.10;1.00;;;;;;5093766;28;20086;-75
2021/09/20 07:15:04;;;;;;;2.33;0.75;;;16.20;1.00;;;;;;5091976;28;20164;-76
2021/09/20 07:17:30;;;;;;;0.93;0.50;;;16.20;2.40;;;;;;5092092;28;20043;-75
2021/09/20 07:19:56;;;;;;;5.63;0.70;;;16.30;1.00;;;;;;5091728;28;20048;-76
2021/09/20 07:22:22;;;;;;;1.08;0.40;;;16.40;1.00;;;;;;5090092;28;20068;-76
2021/09/20 07:24:48;;;;;;;0.80;0.40;;;16.40;1.00;;;;;;5089454;28;20406;-73
2021/09/20 07:27:14;;;;;;;1.23;0.50;;;16.50;1.00;;;;;;5089575;28;20048;-75
2021/09/20 07:29:40;;;;;;;1.48;0.50;;;16.70;1.00;;;;;;5091153;28;20044;-74
2021/09/20 07:32:06;;;;;;;0.93;0.43;;;16.90;1.00;;;;;;5090912;28;20040;-74
2021/09/20 07:34:32;;;;;;;1.23;0.40;;;17.00;1.00;;;;;;5092525;28;20104;-74
2021/09/20 07:36:58;;;;;;;0.50;0.50;;;17.20;1.00;;;;;;5094748;28;20059;-73
2021/09/20 07:39:23;;;;;;;0.95;0.52;;;17.20;1.00;;;;;;5094855;28;20499;-74
2021/09/20 07:41:49;;;;;;;0.80;0.40;;;17.30;1.00;;;;;;5096011;28;20036;-74
2021/09/20 07:44:15;;;;;;;0.90;0.40;;;17.20;1.00;;;;;;5094687;28;20568;-74
2021/09/20 07:46:41;;;;;;;0.30;0.30;;;17.30;1.00;;;;;;5094448;28;20057;-74
2021/09/20 07:49:07;;;;;;;0.65;0.50;;;17.20;1.00;;;;;;5095126;28;20074;-77
2021/09/20 07:51:33;;;;;;;0.50;0.40;;;17.30;1.00;;;;;;5095309;28;20036;-74
2021/09/20 07:53:59;;;;;;;0.45;0.30;;;17.30;1.00;;;;;;5096712;28;20097;-74
2021/09/20 07:56:25;;;;;;;0.30;0.30;;;17.40;1.00;;;;;;5095393;28;20036;-72
2021/09/20 07:58:50;;;;;;;1.00;0.30;;;17.40;1.00;;;;;;5095357;28;20040;-72
2021/09/20 08:01:16;;;;;;;0.30;0.30;;;17.40;1.00;;;;;;5093466;28;20124;-71
2021/09/20 08:03:42;;;;;;;0.45;0.30;;;17.40;1.00;;;;;;5094210;28;20073;-71
2021/09/20 08:06:08;;;;;;;0.40;0.40;;;17.30;1.00;;;;;;5094201;28;20051;-71
2021/09/20 08:08:34;;;;;;;0.30;0.30;;;17.30;1.00;;;;;;5094528;28;20048;-72
2021/09/20 08:11:00;;;;;;;0.32;0.30;;;17.20;1.00;;;;;;5095639;28;20020;-71
2021/09/20 08:13:26;;;;;;;1.75;0.40;;;17.30;1.00;;;;;;5095776;28;20044;-72
2021/09/20 08:15:52;;;;;;;1.60;0.45;;;17.20;1.00;;;;;;5096976;28;20040;-72
2021/09/20 08:18:18;;;;;;;1.25;0.50;;;17.40;1.00;;;;;;5096353;28;20040;-72
2021/09/20 08:20:46;;;;;;;0.30;0.30;;;17.80;1.00;;;;;;5095388;28;20497;-72
2021/09/20 08:23:12;;;;;;;0.57;0.30;;;18.20;1.00;;;;;;5094440;28;20126;-72
2021/09/20 08:25:38;;;;;;;0.30;0.30;;;18.10;1.00;;;;;;5094901;28;20040;-72
2021/09/20 08:28:04;;;;;;;0.55;0.40;;;18.50;1.00;;;;;;5094789;28;20055;-72
2021/09/20 08:30:30;;;;;;;0.75;0.40;;;18.60;1.00;;;;;;5094589;28;20075;-72
2021/09/20 08:32:57;;;;;;;2.80;0.40;;;18.50;1.00;;;;;;5094754;28;20043;-72
2021/09/20 08:35:24;;;;;;;0.40;0.40;;;18.30;1.00;;;;;;5094863;28;20044;-72
2021/09/20 08:37:50;;;;;;;0.75;0.40;;;18.20;1.00;;;;;;5095016;28;20044;-72
2021/09/20 08:40:17;;;;;;;0.60;0.40;;;18.30;1.00;;;;;;5094957;28;20036;-73
2021/09/20 08:42:43;;;;;;;0.30;0.30;;;18.40;1.00;;;;;;5094641;28;20115;-73
2021/09/20 08:45:13;;;;;;;0.57;0.40;;;18.50;1.00;;;;;;5090745;28;20137;-73
2021/09/20 08:47:41;;;;;;;0.40;0.35;;;18.50;1.00;;;;;;5094368;28;20097;-73
2021/09/20 08:50:10;;;;;;;2.38;0.30;;;18.60;1.00;;;;;;5094632;28;20089;-73
2021/09/20 08:52:36;;;;;;;1.27;0.40;;;18.60;1.00;;;;;;5094917;28;20101;-73
2021/09/20 08:55:02;;;;;;;0.80;0.50;;;18.50;1.00;;;;;;5095989;28;20036;-73
2021/09/20 08:57:28;;;;;;;1.50;0.50;;;18.40;1.00;;;;;;5095786;28;20043;-73
2021/09/20 08:59:54;;;;;;;0.50;0.43;;;18.30;1.00;;;;;;5093732;28;20032;-73
2021/09/20 09:02:22;;;;;;;1.23;0.60;;;18.40;1.00;;;;;;5094310;28;20039;-73
2021/09/20 09:04:47;;;;;;;0.30;0.30;;;18.30;1.00;;;;;;5094660;28;20571;-73
2021/09/20 09:07:19;;;;;;;1.17;0.60;;;18.30;1.00;;;;;;5094096;28;20047;-73
2021/09/20 09:09:49;;;;;;;1.08;0.50;;;18.40;1.00;;;;;;5095408;28;20219;-73
2021/09/20 09:12:18;;;;;;;0.40;0.40;;;18.40;1.00;;;;;;5096689;28;20024;-73
2021/09/20 09:14:47;;;;;;;0.40;0.40;;;18.60;1.00;;;;;;5095362;28;20122;-73
2021/09/20 09:17:21;;;;;;;0.50;0.50;;;18.60;1.00;;;;;;5098819;28;20036;-72
2021/09/20 09:19:57;;;;;;;0.30;0.30;;;18.60;1.00;;;;;;5096304;28;20044;-73
2021/09/20 09:22:56;;;;;;;0.50;0.40;;;18.50;1.00;;;;;;5094715;28;20070;-73
2021/09/20 09:25:28;;;;;;;1.48;0.50;;;18.50;1.00;;;;;;5092532;28;20040;-73
2021/09/20 09:28:01;;;;;;;1.55;0.50;;;18.50;1.00;;;;;;5095223;28;20485;-73
2021/09/20 09:30:30;;;;;;;1.58;0.50;;;18.50;1.00;;;;;;5095394;28;20051;-73
2021/09/20 09:33:08;;;;;;;1.85;0.50;;;18.50;1.00;;;;;;5095260;28;20046;-73
2021/09/20 09:35:35;;;;;;;0.73;0.40;;;18.80;1.00;;;;;;5095870;28;20032;-73
2021/09/20 09:38:04;;;;;;;0.68;0.50;;;18.80;1.00;;;;;;5095145;28;20040;-73
2021/09/20 09:40:54;;;;;;;0.52;0.47;;;18.90;1.00;;;;;;5092822;28;20536;-73
2021/09/20 09:43:27;;;;;;;0.40;0.40;;;19.10;1.00;;;;;;5092055;28;20047;-73
2021/09/20 09:45:55;;;;;;;0.75;0.60;;;19.10;1.00;;;;;;5093883;28;20043;-73
2021/09/20 09:48:24;;;;;;;1.35;0.57;;;19.10;1.00;;;;;;5093116;28;20028;-73
2021/09/20 09:50:54;;;;;;;0.55;0.50;;;18.90;1.00;;;;;;5094160;28;20117;-73
2021/09/20 09:53:27;;;;;;;1.98;0.40;;;18.50;1.00;;;;;;5094506;28;20059;-72
2021/09/20 09:55:57;;;;;;;0.38;0.38;;;18.20;1.00;;;;;;5093390;28;20043;-72
2021/09/20 09:58:25;;;;;;;1.27;0.50;;;18.00;1.00;;;;;;5093551;28;20051;-73
2021/09/20 10:00:52;;;;;;;0.30;0.30;;;18.10;1.00;;;;;;5094283;28;20039;-72
2021/09/20 10:03:18;;;;;;;0.98;0.50;;;18.20;1.00;;;;;;5092868;28;20042;-73
2021/09/20 10:05:59;;;;;;;0.30;0.30;;;18.30;1.00;;;;;;5093462;28;20059;-73
2021/09/20 10:08:26;;;;;;;1.00;0.40;;;18.70;1.00;;;;;;5091626;28;20046;-73
2021/09/20 10:10:52;;;;;;;0.45;0.40;;;19.10;1.00;;;;;;5093198;28;20024;-72
2021/09/20 10:13:18;;;;;;;0.50;0.50;;;19.30;1.00;;;;;;5092970;28;20128;-73
2021/09/20 10:15:45;;;;;;;0.45;0.40;;;19.40;1.00;;;;;;5093605;28;20441;-72
2021/09/20 10:18:11;;;;;;;0.52;0.40;;;19.50;1.00;;;;;;5092403;28;20044;-72
2021/09/20 10:20:37;;;;;;;0.30;0.30;;;19.50;1.00;;;;;;5093379;28;20067;-72
2021/09/20 10:23:03;;;;;;;1.02;0.30;;;19.70;1.00;;;;;;5092255;28;20483;-72
2021/09/20 10:25:30;;;;;;;1.95;0.40;;;19.80;1.00;;;;;;5093244;28;20059;-72
2021/09/20 10:27:58;;;;;;;3.03;0.40;;;20.00;1.00;;;;;;5090705;28;20035;-72
2021/09/20 10:30:26;;;;;;;0.40;0.40;;;20.20;1.00;;;;;;5091223;28;20464;-72
2021/09/20 10:32:58;;;;;;;0.30;0.30;;;20.30;1.00;;;;;;5090952;28;20047;-72
2021/09/20 10:35:30;;;;;;;0.40;0.40;;;20.10;1.00;;;;;;5093161;28;20407;-72
2021/09/20 10:38:16;;;;;;;0.60;0.50;;;19.90;1.00;;;;;;5091247;28;20028;-72
2021/09/20 10:40:42;;;;;;;1.02;0.50;;;19.50;1.00;;;;;;5092106;28;20090;-72
2021/09/20 10:43:08;;;;;;;2.05;0.50;;;19.20;1.00;;;;;;5092928;28;20044;-72
2021/09/20 10:45:41;;;;;;;0.73;0.50;;;19.00;1.00;;;;;;5093202;28;20548;-72
2021/09/20 10:48:24;;;;;;;0.30;0.30;;;19.00;1.00;;;;;;5092858;28;20085;-72
2021/09/20 10:50:56;;;;;;;0.55;0.55;;;19.00;1.00;;;;;;5092985;28;20073;-72
2021/09/20 10:53:33;;;;;;;0.40;0.40;;;19.30;1.00;;;;;;5093309;28;20036;-72
2021/09/20 10:56:02;;;;;;;2.63;0.40;;;19.50;1.00;;;;;;5091602;28;20075;-72
2021/09/20 10:58:36;;;;;;;1.45;0.45;;;19.70;1.00;;;;;;5093923;28;20078;-72
2021/09/20 11:01:11;;;;;;;0.30;0.30;;;19.50;1.00;;;;;;5092754;28;20081;-72
2021/09/20 11:04:04;;;;;;;2.10;0.47;;;19.20;1.00;;;;;;5090966;28;20032;-72
2021/09/20 11:06:35;;;;;;;1.05;0.40;;;19.20;1.00;;;;;;5089131;28;20060;-72
2021/09/20 11:09:01;;;;;;;0.65;0.50;;;19.10;1.00;;;;;;5093491;28;20139;-73
2021/09/20 11:11:42;;;;;;;1.20;0.50;;;19.20;1.00;;;;;;5096754;28;20035;-72
2021/09/20 11:14:12;;;;;;;;;;;19.30;1.00;;;;;;5096971;28;20040;-73
2021/09/20 11:16:57;;;;;;;1.00;0.60;;;19.60;1.00;;;;;;5096674;28;19961;-73
2021/09/20 11:19:26;;;;;;;0.80;0.35;;;19.50;1.00;;;;;;5096051;28;20036;-73
2021/09/20 11:22:04;;;;;;;1.17;0.60;;;19.40;1.00;;;;;;5095102;28;20032;-72
2021/09/20 11:24:51;;;;;;;0.73;0.40;;;19.60;1.00;;;;;;5097969;28;20068;-72
2021/09/20 11:27:25;;;;;;;0.68;0.50;;;19.70;1.00;;;;;;5098021;28;20032;-72
2021/09/20 11:29:54;;;;;;;0.73;0.50;;;19.90;1.00;;;;;;5097465;28;20105;-73
2021/09/20 11:32:20;;;;;;;0.82;0.40;;;20.00;1.00;;;;;;5097560;28;20044;-72
2021/09/20 11:34:49;;;;;;;0.45;0.30;;;20.10;1.00;;;;;;5098075;28;20043;-72
2021/09/20 11:37:19;;;;;;;0.35;0.30;;;20.10;1.00;;;;;;5096871;28;20058;-72
2021/09/20 11:39:58;;;;;;;1.38;0.30;;;20.10;1.00;;;;;;5097346;28;20079;-72
2021/09/20 11:42:43;;;;;;;0.50;0.40;;;20.20;1.00;;;;;;5097756;28;20036;-72
2021/09/20 11:45:37;;;;;;;0.80;0.55;;;20.20;1.00;;;;;;5097779;28;20070;-72
2021/09/20 11:48:06;;;;;;;0.90;0.40;;;20.20;1.00;;;;;;5095301;28;20550;-72
2021/09/20 11:50:38;;;;;;;0.38;0.30;;;20.00;1.00;;;;;;5097539;28;20058;-72
2021/09/20 11:53:10;;;;;;;0.43;0.30;;;20.00;1.00;;;;;;5096741;28;20043;-72
2021/09/20 11:55:43;;;;;;;0.68;0.30;;;19.90;1.00;;;;;;5096297;28;20093;-73
2021/09/20 11:58:15;;;;;;;0.63;0.32;;;20.20;1.00;;;;;;5093756;28;20068;-72
2021/09/20 12:00:49;;;;;;;0.30;0.30;;;20.20;1.00;;;;;;5095968;28;20040;-72
2021/09/20 12:03:18;;;;;;;0.52;0.30;;;20.30;1.00;;;;;;5095596;28;20028;-72
2021/09/20 12:05:46;;;;;;;0.30;0.30;;;20.60;1.00;;;;;;5096152;28;20043;-72
2021/09/20 12:08:15;;;;;;;0.40;0.35;;;20.60;1.00;;;;;;5095832;28;20131;-72
2021/09/20 12:11:03;;;;;;;0.30;0.30;;;20.70;1.00;;;;;;5095724;28;20052;-72
2021/09/20 12:13:35;;;;;;;0.30;0.30;;;20.50;1.00;;;;;;5094645;28;20126;-72
2021/09/20 12:16:09;;;;;;;0.28;0.28;;;20.30;1.00;;;;;;5092102;28;20131;-72
2021/09/20 12:18:36;;;;;;;0.75;0.32;;;19.70;1.00;;;;;;5096563;28;20555;-72
2021/09/20 12:21:05;;;;;;;0.20;0.20;;;19.60;1.00;;;;;;5094795;28;20075;-72
2021/09/20 12:23:36;;;;;;;0.20;0.20;;;19.80;1.00;;;;;;5092771;28;20086;-72
2021/09/20 12:26:10;;;;;;;0.45;0.20;;;20.00;1.00;;;;;;5095535;28;20048;-72
2021/09/20 12:28:40;;;;;;;0.55;0.30;;;19.90;1.00;;;;;;5093080;28;20086;-72
2021/09/20 12:31:09;;;;;;;0.20;0.20;;;19.80;1.00;;;;;;5094910;28;20048;-72
2021/09/20 12:33:47;;;;;;;0.30;0.30;;;19.90;1.00;;;;;;5095381;28;20036;-72
2021/09/20 12:36:18;;;;;;;0.30;0.30;;;20.10;1.00;;;;;;5092561;28;20486;-72
2021/09/20 12:38:44;;;;;;;0.45;0.22;;;20.30;1.00;;;;;;5095352;28;20075;-72
2021/09/20 12:41:14;;;;;;;0.68;0.60;;;20.50;1.00;;;;;;5095119;28;20089;-72
2021/09/20 12:43:40;;;;;;;1.02;0.38;;;20.20;1.00;;;;;;5093730;28;20047;-72
2021/09/20 12:46:20;;;;;;;0.43;0.40;;;19.80;1.00;;;;;;5094847;28;20044;-72
2021/09/20 12:48:52;;;;;;;0.40;0.40;;;19.70;1.00;;;;;;5094926;28;20058;-72
2021/09/20 12:51:19;;;;;;;0.38;0.38;;;19.80;1.00;;;;;;5095044;28;20047;-72
2021/09/20 12:53:49;;;;;;;0.70;0.50;;;19.60;1.00;;;;;;5094922;28;20043;-72
2021/09/20 12:56:17;;;;;;;0.50;0.40;;;19.50;1.00;;;;;;5092815;28;20119;-72
2021/09/20 12:58:48;;;;;;;0.28;0.20;;;19.60;1.00;;;;;;5094901;28;20067;-72
2021/09/20 13:01:27;;;;;;;0.85;0.40;;;19.90;1.00;;;;;;5092155;28;20040;-72
2021/09/20 13:04:00;;;;;;;0.30;0.30;;;19.70;1.00;;;;;;5091971;28;20069;-72
2021/09/20 13:06:27;;;;;;;0.40;0.30;;;19.80;1.00;;;;;;5092950;28;20040;-72
2021/09/20 13:09:03;;;;;;;0.75;0.30;;;19.80;1.00;;;;;;5094552;28;20062;-72
2021/09/20 13:11:39;;;;;;;0.88;0.25;;;19.70;1.00;;;;;;5094671;28;20028;-73
2021/09/20 13:14:20;;;;;;;0.43;0.30;;;19.70;1.00;;;;;;5095054;28;20043;-73
2021/09/20 13:16:46;;;;;;;0.43;0.30;;;19.70;1.00;;;;;;5093576;28;20036;-73
2021/09/20 13:19:12;;;;;;;0.73;0.50;;;19.70;1.00;;;;;;5094498;28;20506;-72
2021/09/20 13:21:38;;;;;;;0.30;0.30;;;19.60;1.00;;;;;;5094315;28;20075;-73
2021/09/20 13:24:07;;;;;;;1.88;0.60;;;19.70;1.00;;;;;;5092969;28;20032;-73
2021/09/20 13:26:39;;;;;;;2.10;0.30;;;19.60;1.00;;;;;;5092088;28;20075;-73
2021/09/20 13:29:06;;;;;;;1.75;0.35;;;19.80;1.00;;;;;;5094172;28;20083;-73
2021/09/20 13:31:33;;;;;;;2.35;0.40;;;19.90;1.00;;;;;;5093373;28;20086;-73